createdAt,value
2023-04-23T00:00:15.954Z,10.70
2023-04-23T00:02:47.171Z,12.70
2023-04-23T00:05:16.741Z,8.30
2023-04-23T00:07:45.625Z,11.80
2023-04-23T00:10:14.136Z,11.00
2023-04-23T00:12:43.934Z,11.80
2023-04-23T00:15:14.056Z,7.90
2023-04-23T00:17:43.423Z,9.40
2023-04-23T00:20:12.038Z,10.40
2023-04-23T00:22:40.896Z,16.30
2023-04-23T00:25:11.177Z,15.40
2023-04-23T00:27:39.719Z,14.20
2023-04-23T00:30:09.342Z,11.70
2023-04-23T00:32:38.894Z,13.20
2023-04-23T00:35:08.777Z,12.20
2023-04-23T00:37:37.858Z,8.00
2023-04-23T00:40:07.985Z,11.90
2023-04-23T00:42:37.418Z,18.90
2023-04-23T00:45:09.587Z,16.40
2023-04-23T00:47:40.662Z,18.30
2023-04-23T00:50:10.006Z,14.00
2023-04-23T00:52:41.109Z,12.00
2023-04-23T00:55:09.591Z,12.70
2023-04-23T00:57:38.820Z,12.60
2023-04-23T01:00:08.850Z,15.70
2023-04-23T01:02:38.878Z,12.70
2023-04-23T01:05:09.713Z,12.90
2023-04-23T01:07:39.403Z,19.40
2023-04-23T01:10:09.265Z,14.20
2023-04-23T01:12:38.446Z,14.70
2023-04-23T01:15:07.957Z,17.70
2023-04-23T01:17:37.332Z,25.40
2023-04-23T01:20:06.789Z,19.10
2023-04-23T01:22:38.739Z,15.70
2023-04-23T01:25:08.487Z,17.70
2023-04-23T01:27:37.445Z,20.50
2023-04-23T01:30:06.487Z,15.20
2023-04-23T01:32:36.317Z,17.60
2023-04-23T01:35:05.275Z,23.60
2023-04-23T01:37:35.079Z,21.10
2023-04-23T01:40:03.537Z,14.20
2023-04-23T01:42:32.089Z,17.70
2023-04-23T01:45:01.784Z,20.50
2023-04-23T01:47:30.816Z,21.20
2023-04-23T01:49:59.264Z,22.90
2023-04-23T01:52:27.665Z,17.30
2023-04-23T01:54:56.069Z,19.80
2023-04-23T01:57:26.800Z,22.20
2023-04-23T02:00:08.511Z,17.40
2023-04-23T02:02:44.634Z,28.40
2023-04-23T02:05:18.845Z,27.00
2023-04-23T02:07:49.825Z,28.30
2023-04-23T02:10:19.003Z,16.30
2023-04-23T02:12:47.620Z,14.80
2023-04-23T02:15:16.710Z,12.00
2023-04-23T02:17:45.232Z,20.60
2023-04-23T02:20:13.765Z,25.00
2023-04-23T02:22:43.095Z,18.40
2023-04-23T02:25:12.319Z,15.00
2023-04-23T02:27:41.439Z,17.50
2023-04-23T02:30:11.805Z,18.30
2023-04-23T02:32:41.985Z,12.40
2023-04-23T02:35:10.967Z,11.50
2023-04-23T02:37:39.990Z,14.70
2023-04-23T02:40:09.542Z,13.70
2023-04-23T02:42:38.589Z,14.60
2023-04-23T02:45:07.934Z,17.30
2023-04-23T02:47:37.031Z,14.20
2023-04-23T02:50:06.891Z,12.60
2023-04-23T02:52:35.886Z,10.00
2023-04-23T02:55:05.039Z,10.40
2023-04-23T02:57:33.924Z,21.30
2023-04-23T03:00:04.570Z,7.90
2023-04-23T03:02:36.946Z,12.10
2023-04-23T03:05:06.810Z,7.90
2023-04-23T03:07:35.840Z,11.90
2023-04-23T03:10:04.352Z,18.40
2023-04-23T03:12:32.921Z,20.20
2023-04-23T03:15:02.149Z,16.10
2023-04-23T03:17:32.398Z,10.70
2023-04-23T03:20:01.069Z,12.10
2023-04-23T03:22:29.902Z,13.90
2023-04-23T03:24:58.296Z,17.30
2023-04-23T03:27:27.212Z,14.40
2023-04-23T03:29:56.329Z,14.30
2023-04-23T03:32:24.880Z,20.10
2023-04-23T03:34:53.365Z,11.70
2023-04-23T03:37:25.966Z,13.30
2023-04-23T03:39:54.376Z,9.90
2023-04-23T03:42:22.970Z,16.90
2023-04-23T03:44:51.572Z,12.90
2023-04-23T03:47:20.248Z,10.30
2023-04-23T03:49:48.775Z,11.30
2023-04-23T03:52:17.611Z,10.30
2023-04-23T03:54:46.055Z,13.70
2023-04-23T03:57:19.645Z,13.90
2023-04-23T04:00:12.085Z,11.50
2023-04-23T04:05:12.690Z,9.20
2023-04-23T04:07:41.556Z,13.80
2023-04-23T04:10:10.270Z,13.30
2023-04-23T04:12:41.269Z,7.50
2023-04-23T04:15:11.843Z,8.50
2023-04-23T04:17:40.829Z,9.30
2023-04-23T04:20:10.484Z,15.30
2023-04-23T04:22:40.013Z,11.70
2023-04-23T04:25:08.818Z,10.10
2023-04-23T04:27:39.467Z,11.20
2023-04-23T04:30:09.319Z,11.60
2023-04-23T04:32:40.944Z,12.90
2023-04-23T04:35:09.433Z,12.10
2023-04-23T04:37:38.596Z,6.70
2023-04-23T04:40:08.179Z,8.60
2023-04-23T04:42:39.837Z,10.70
2023-04-23T04:45:08.899Z,17.70
2023-04-23T04:47:38.169Z,8.00
2023-04-23T04:50:07.613Z,13.90
2023-04-23T04:52:36.748Z,10.00
2023-04-23T04:55:07.362Z,9.90
2023-04-23T04:57:36.761Z,6.80
2023-04-23T05:00:22.772Z,10.20
2023-04-23T05:02:51.713Z,9.50
2023-04-23T05:05:22.058Z,17.20
2023-04-23T05:07:51.456Z,20.60
2023-04-23T05:10:20.958Z,15.70
2023-04-23T05:12:49.356Z,11.70
2023-04-23T05:15:18.151Z,12.50
2023-04-23T05:17:46.660Z,8.50
2023-04-23T05:20:15.528Z,14.90
2023-04-23T05:22:43.961Z,14.90
2023-04-23T05:25:13.053Z,8.90
2023-04-23T05:27:42.034Z,7.20
2023-04-23T05:30:11.475Z,12.80
2023-04-23T05:32:40.131Z,44.20
2023-04-23T05:35:09.366Z,26.60
2023-04-23T05:37:38.116Z,37.70
2023-04-23T05:40:07.898Z,15.40
2023-04-23T05:42:37.198Z,8.80
2023-04-23T05:45:08.794Z,9.40
2023-04-23T05:47:38.208Z,16.00
2023-04-23T05:50:07.478Z,9.70
2023-04-23T05:52:37.675Z,15.30
2023-04-23T05:55:08.558Z,18.30
2023-04-23T05:57:38.308Z,15.00
2023-04-23T06:00:10.092Z,14.00
2023-04-23T06:02:42.243Z,14.10
2023-04-23T06:05:11.301Z,21.00
2023-04-23T06:07:41.460Z,12.30
2023-04-23T06:10:11.187Z,8.40
2023-04-23T06:12:40.322Z,13.80
2023-04-23T06:15:09.411Z,15.50
2023-04-23T06:17:39.163Z,11.60
2023-04-23T06:20:09.129Z,8.10
2023-04-23T06:22:38.202Z,13.20
2023-04-23T06:25:06.828Z,12.70
2023-04-23T06:27:35.591Z,9.50
2023-04-23T06:30:09.078Z,7.10
2023-04-23T06:32:38.434Z,8.30
2023-04-23T06:35:08.491Z,14.40
2023-04-23T06:37:37.992Z,9.10
2023-04-23T06:40:06.982Z,8.80
2023-04-23T06:42:35.488Z,10.90
2023-04-23T06:45:24.143Z,14.70
2023-04-23T06:47:52.699Z,11.80
2023-04-23T06:50:21.229Z,9.30
2023-04-23T06:52:49.726Z,12.60
2023-04-23T06:55:18.087Z,7.50
2023-04-23T06:57:48.527Z,6.60
2023-04-23T07:00:17.032Z,16.50
2023-04-23T07:02:47.114Z,10.50
2023-04-23T07:05:16.605Z,12.20
2023-04-23T07:07:45.254Z,12.90
2023-04-23T07:10:15.013Z,15.50
2023-04-23T07:12:45.605Z,12.20
2023-04-23T07:15:14.171Z,10.00
2023-04-23T07:17:43.182Z,8.30
2023-04-23T07:20:12.555Z,9.30
2023-04-23T07:22:41.541Z,18.80
2023-04-23T07:25:10.227Z,11.40
2023-04-23T07:27:38.718Z,11.20
2023-04-23T07:30:08.313Z,11.80
2023-04-23T07:32:37.295Z,10.00
2023-04-23T07:35:06.697Z,12.00
2023-04-23T07:37:36.475Z,8.00
2023-04-23T07:40:06.160Z,10.00
2023-04-23T07:42:35.219Z,15.20
2023-04-23T07:45:04.693Z,17.70
2023-04-23T07:47:33.415Z,14.40
2023-04-23T07:50:01.752Z,9.40
2023-04-23T07:52:31.072Z,12.70
2023-04-23T07:54:59.566Z,13.20
2023-04-23T07:57:27.935Z,12.00
2023-04-23T07:59:56.326Z,12.50
2023-04-23T08:02:26.756Z,18.10
2023-04-23T08:04:55.603Z,11.10
2023-04-23T08:07:24.247Z,13.80
2023-04-23T08:09:52.732Z,16.30
2023-04-23T08:12:22.215Z,12.80
2023-04-23T08:14:51.124Z,11.70
2023-04-23T08:17:19.948Z,15.50
2023-04-23T08:19:48.459Z,12.00
2023-04-23T08:22:17.745Z,16.90
2023-04-23T08:24:46.680Z,16.10
2023-04-23T08:27:15.132Z,8.60
2023-04-23T08:29:43.722Z,28.30
2023-04-23T08:32:12.213Z,12.70
2023-04-23T08:34:40.793Z,9.70
2023-04-23T08:37:16.550Z,12.10
2023-04-23T08:39:51.792Z,12.90
2023-04-23T08:42:26.590Z,13.60
2023-04-23T08:44:55.642Z,14.90
2023-04-23T08:47:25.626Z,7.60
2023-04-23T08:49:56.437Z,8.10
2023-04-23T08:52:27.002Z,14.10
2023-04-23T08:55:01.625Z,13.50
2023-04-23T08:57:31.543Z,13.10
2023-04-23T09:00:01.426Z,17.10
2023-04-23T09:02:30.404Z,7.80
2023-04-23T09:04:59.344Z,10.70
2023-04-23T09:07:28.002Z,14.10
2023-04-23T09:09:57.422Z,11.10
2023-04-23T09:12:26.048Z,17.80
2023-04-23T09:14:54.650Z,11.40
2023-04-23T09:17:23.904Z,9.90
2023-04-23T09:19:55.009Z,6.20
2023-04-23T09:22:44.345Z,17.90
2023-04-23T09:25:18.745Z,10.10
2023-04-23T09:30:17.803Z,15.00
2023-04-23T09:32:47.642Z,10.60
2023-04-23T09:35:19.840Z,12.40
2023-04-23T09:37:51.380Z,7.50
2023-04-23T09:40:22.816Z,10.90
2023-04-23T09:42:54.578Z,14.90
2023-04-23T09:45:25.983Z,16.40
2023-04-23T09:47:56.507Z,11.70
2023-04-23T09:50:34.472Z,9.70
2023-04-23T09:53:04.407Z,15.70
2023-04-23T09:55:37.499Z,13.40
2023-04-23T09:58:11.082Z,17.70
2023-04-23T10:00:40.491Z,14.50
2023-04-23T10:03:10.323Z,11.90
2023-04-23T10:08:16.689Z,13.60
2023-04-23T10:11:02.533Z,11.00
2023-04-23T10:13:36.634Z,13.40
2023-04-23T10:16:20.752Z,17.30
2023-04-23T10:18:53.173Z,17.80
2023-04-23T10:21:32.159Z,11.20
2023-04-23T10:24:11.851Z,9.20
2023-04-23T10:26:43.160Z,18.00
2023-04-23T10:29:18.997Z,15.00
2023-04-23T10:31:48.457Z,12.40
2023-04-23T10:34:17.983Z,16.80
2023-04-23T10:36:46.504Z,12.60
2023-04-23T10:39:24.140Z,17.30
2023-04-23T10:41:59.182Z,7.10
2023-04-23T10:47:15.134Z,7.70
2023-04-23T10:49:44.869Z,11.90
2023-04-23T10:52:20.042Z,17.80
2023-04-23T10:54:58.284Z,13.40
2023-04-23T10:57:26.595Z,16.20
2023-04-23T10:59:56.724Z,16.30
2023-04-23T11:02:26.171Z,23.80
2023-04-23T11:05:01.733Z,18.10
2023-04-23T11:07:32.839Z,13.70
2023-04-23T11:10:13.057Z,6.30
2023-04-23T11:12:41.881Z,12.60
2023-04-23T11:15:15.171Z,14.40
2023-04-23T11:17:49.505Z,26.10
2023-04-23T11:20:22.330Z,15.20
2023-04-23T11:25:22.683Z,15.50
2023-04-23T11:27:53.087Z,18.10
2023-04-23T11:30:24.179Z,11.60
2023-04-23T11:32:54.877Z,18.20
2023-04-23T11:35:29.723Z,18.70
2023-04-23T11:37:58.280Z,15.10
2023-04-23T11:40:31.233Z,12.90
2023-04-23T11:42:59.654Z,9.70
2023-04-23T11:45:29.905Z,12.10
2023-04-23T11:48:01.027Z,22.20
2023-04-23T11:50:33.801Z,20.00
2023-04-23T11:53:08.172Z,20.20
2023-04-23T11:55:37.086Z,15.10
2023-04-23T11:58:05.974Z,13.80
2023-04-23T12:00:34.283Z,10.20
2023-04-23T12:03:06.595Z,14.70
2023-04-23T12:05:39.644Z,13.20
2023-04-23T12:08:14.797Z,16.00
2023-04-23T12:10:55.743Z,12.30
2023-04-23T12:13:30.344Z,17.30
2023-04-23T12:16:03.749Z,20.40
2023-04-23T12:18:35.758Z,11.60
2023-04-23T12:21:07.153Z,14.30
2023-04-23T12:23:37.968Z,12.40
2023-04-23T12:26:12.153Z,12.40
2023-04-23T12:28:55.913Z,13.10
2023-04-23T12:31:27.997Z,20.30
2023-04-23T12:34:03.348Z,16.40
2023-04-23T12:36:33.066Z,18.60
2023-04-23T12:39:19.827Z,16.30
2023-04-23T12:41:53.856Z,19.70
2023-04-23T12:44:22.532Z,17.30
2023-04-23T12:47:15.443Z,14.90
2023-04-23T12:49:44.416Z,15.20
2023-04-23T12:52:13.971Z,10.90
2023-04-23T12:54:44.978Z,18.50
2023-04-23T12:57:22.015Z,21.70
2023-04-23T12:59:50.682Z,11.00
2023-04-23T13:02:19.178Z,8.70
2023-04-23T13:04:47.652Z,12.60
2023-04-23T13:07:15.962Z,18.70
2023-04-23T13:09:44.800Z,13.00
2023-04-23T13:12:13.546Z,14.50
2023-04-23T13:14:41.889Z,13.10
2023-04-23T13:17:10.401Z,12.80
2023-04-23T13:19:40.148Z,12.70
2023-04-23T13:22:08.948Z,13.50
2023-04-23T13:24:38.290Z,6.70
2023-04-23T13:27:06.613Z,16.30
2023-04-23T13:29:35.629Z,14.60
2023-04-23T13:32:03.990Z,18.10
2023-04-23T13:34:34.288Z,14.10
2023-04-23T13:37:05.803Z,15.30
2023-04-23T13:39:34.620Z,20.30
2023-04-23T13:42:09.654Z,8.00
2023-04-23T13:44:38.785Z,6.70
2023-04-23T13:47:07.404Z,10.60
2023-04-23T13:49:36.304Z,12.60
2023-04-23T13:52:07.109Z,12.30
2023-04-23T13:54:36.178Z,6.00
2023-04-23T13:57:04.732Z,20.10
2023-04-23T13:59:34.359Z,11.00
2023-04-23T14:02:02.744Z,14.70
2023-04-23T14:04:31.202Z,4.60
2023-04-23T14:06:59.493Z,7.70
2023-04-23T14:09:30.126Z,11.50
2023-04-23T14:11:58.969Z,3.30
2023-04-23T14:14:27.354Z,20.20
2023-04-23T14:16:56.040Z,15.90
2023-04-23T14:19:24.441Z,15.10
2023-04-23T14:21:52.949Z,15.10
2023-04-23T14:24:28.882Z,18.00
2023-04-23T14:26:57.108Z,19.30
2023-04-23T14:29:35.007Z,9.70
2023-04-23T14:32:03.330Z,9.00
2023-04-23T14:34:35.152Z,14.20
2023-04-23T14:37:03.228Z,14.20
2023-04-23T14:39:30.796Z,11.90
2023-04-23T14:41:58.055Z,8.30
2023-04-23T14:44:26.829Z,6.00
2023-04-23T14:46:54.167Z,6.90
2023-04-23T14:49:21.674Z,15.40
2023-04-23T14:51:54.504Z,10.80
2023-04-23T14:54:22.591Z,9.80
2023-04-23T14:56:51.639Z,12.00
2023-04-23T14:59:18.815Z,37.70
2023-04-23T15:01:46.029Z,12.00
2023-04-23T15:04:13.334Z,15.30
2023-04-23T15:06:40.783Z,10.40
2023-04-23T15:09:07.937Z,7.60
2023-04-23T15:11:35.218Z,3.80
2023-04-23T15:14:20.762Z,17.00
2023-04-23T15:16:49.179Z,12.20
2023-04-23T15:19:18.486Z,8.50
2023-04-23T15:21:47.040Z,21.40
2023-04-23T15:24:15.526Z,12.60
2023-04-23T15:26:43.511Z,6.40
2023-04-23T15:29:10.821Z,11.10
2023-04-23T15:31:38.886Z,22.00
2023-04-23T15:34:09.286Z,34.50
2023-04-23T15:36:37.908Z,49.20
2023-04-23T15:39:09.420Z,12.30
2023-04-23T15:41:40.250Z,18.50
2023-04-23T15:44:12.111Z,21.50
2023-04-23T15:46:40.114Z,40.00
2023-04-23T15:49:07.309Z,20.20
2023-04-23T15:51:34.475Z,15.80
2023-04-23T15:54:02.859Z,16.50
2023-04-23T15:56:30.057Z,15.80
2023-04-23T15:58:57.241Z,13.10
2023-04-23T16:01:27.117Z,19.10
2023-04-23T16:04:09.321Z,11.70
2023-04-23T16:06:37.459Z,17.60
2023-04-23T16:09:07.339Z,13.30
2023-04-23T16:11:38.990Z,46.70
2023-04-23T16:14:07.079Z,98.40
2023-04-23T16:16:34.729Z,68.90
2023-04-23T16:19:05.085Z,58.00
2023-04-23T16:21:32.935Z,24.00
2023-04-23T16:23:59.979Z,29.00
2023-04-23T16:26:28.272Z,27.00
2023-04-23T16:29:05.447Z,24.60
2023-04-23T16:31:39.010Z,28.20
2023-04-23T16:34:06.404Z,26.50
2023-04-23T16:36:33.864Z,17.90
2023-04-23T16:39:01.093Z,21.20
2023-04-23T16:41:28.209Z,22.30
2023-04-23T16:43:55.380Z,15.10
2023-04-23T16:46:22.795Z,12.50
2023-04-23T16:48:50.042Z,13.90
2023-04-23T16:51:17.293Z,11.10
2023-04-23T16:53:44.358Z,31.20
2023-04-23T16:56:11.574Z,20.60
2023-04-23T16:58:38.728Z,17.50
2023-04-23T17:01:05.922Z,28.50
2023-04-23T17:03:34.047Z,33.30
2023-04-23T17:06:18.588Z,38.80
2023-04-23T17:08:46.085Z,46.40
2023-04-23T17:11:13.306Z,33.90
2023-04-23T17:13:43.725Z,36.80
2023-04-23T17:16:11.201Z,35.60
2023-04-23T17:18:38.310Z,41.40
2023-04-23T17:21:05.589Z,36.10
2023-04-23T17:23:32.775Z,27.20
2023-04-23T17:25:59.838Z,23.60
2023-04-23T17:28:27.142Z,26.40
2023-04-23T17:30:56.079Z,15.30
2023-04-23T17:33:23.867Z,19.90
2023-04-23T17:35:52.403Z,43.80
2023-04-23T17:38:21.016Z,35.00
2023-04-23T17:40:49.722Z,31.50
2023-04-23T17:43:18.177Z,24.40
2023-04-23T17:45:47.804Z,19.60
2023-04-23T17:48:16.028Z,26.20
2023-04-23T17:50:44.146Z,19.10
2023-04-23T17:53:11.279Z,21.30
2023-04-23T17:55:38.455Z,21.80
2023-04-23T17:58:05.940Z,27.90
2023-04-23T18:00:37.308Z,21.30
2023-04-23T18:03:05.311Z,22.20
2023-04-23T18:05:32.731Z,23.80
2023-04-23T18:07:59.915Z,33.00
2023-04-23T18:10:27.352Z,33.10
2023-04-23T18:12:56.221Z,22.40
2023-04-23T18:15:25.947Z,18.20
2023-04-23T18:17:55.945Z,27.50
2023-04-23T18:20:25.084Z,19.80
2023-04-23T18:22:56.573Z,18.30
2023-04-23T18:25:25.525Z,20.60
2023-04-23T18:27:53.249Z,19.90
2023-04-23T18:30:23.579Z,12.80
2023-04-23T18:32:59.731Z,19.90
2023-04-23T18:35:30.114Z,22.20
2023-04-23T18:38:07.725Z,14.90
2023-04-23T18:40:35.069Z,23.40
2023-04-23T18:43:02.337Z,18.10
2023-04-23T18:45:29.398Z,24.80
2023-04-23T18:48:22.397Z,33.10
2023-04-23T18:50:52.300Z,31.00
2023-04-23T18:53:21.574Z,27.90
2023-04-23T18:55:49.414Z,40.60
2023-04-23T18:58:16.503Z,43.50
2023-04-23T19:00:43.601Z,44.70
2023-04-23T19:03:23.415Z,45.30
2023-04-23T19:05:53.975Z,45.80
2023-04-23T19:08:22.940Z,44.60
2023-04-23T19:10:49.948Z,40.10
2023-04-23T19:13:18.978Z,41.30
2023-04-23T19:15:46.580Z,52.30
2023-04-23T19:18:13.808Z,37.10
2023-04-23T19:20:41.063Z,32.90
2023-04-23T19:23:09.367Z,32.90
2023-04-23T19:25:36.933Z,33.40
2023-04-23T19:28:04.099Z,38.80
2023-04-23T19:30:32.508Z,30.70
2023-04-23T19:32:59.874Z,32.50
2023-04-23T19:35:27.192Z,31.40
2023-04-23T19:37:54.428Z,30.20
2023-04-23T19:40:21.545Z,22.70
2023-04-23T19:42:49.148Z,29.30
2023-04-23T19:45:18.599Z,25.80
2023-04-23T19:47:45.798Z,23.80
2023-04-23T19:50:14.163Z,25.30
2023-04-23T19:52:41.496Z,23.90
2023-04-23T19:55:09.025Z,27.70
2023-04-23T19:57:36.895Z,24.50
2023-04-23T20:00:07.594Z,19.80
2023-04-23T20:02:35.660Z,21.90
2023-04-23T20:05:03.555Z,17.00
2023-04-23T20:07:31.194Z,23.40
2023-04-23T20:09:58.353Z,21.90
2023-04-23T20:12:25.648Z,21.00
2023-04-23T20:14:54.464Z,17.90
2023-04-23T20:17:22.947Z,18.80
2023-04-23T20:19:50.052Z,17.00
2023-04-23T20:22:17.349Z,13.20
2023-04-23T20:24:46.685Z,14.20
2023-04-23T20:27:14.214Z,8.50
2023-04-23T20:29:42.352Z,9.70
2023-04-23T20:32:09.842Z,7.70
2023-04-23T20:34:37.054Z,12.20
2023-04-23T20:37:04.298Z,7.00
2023-04-23T20:39:32.872Z,6.80
2023-04-23T20:42:01.130Z,10.70
2023-04-23T20:44:28.337Z,10.20
2023-04-23T20:46:58.153Z,11.00
2023-04-23T20:49:26.043Z,10.70
2023-04-23T20:51:53.862Z,12.70
2023-04-23T20:54:20.947Z,9.60
2023-04-23T20:56:48.088Z,6.90
2023-04-23T20:59:15.509Z,9.20
2023-04-23T21:01:42.958Z,8.80
2023-04-23T21:04:11.115Z,12.80
2023-04-23T21:06:38.700Z,12.40
2023-04-23T21:09:06.338Z,8.70
2023-04-23T21:11:33.666Z,11.30
2023-04-23T21:14:01.805Z,11.30
2023-04-23T21:16:29.030Z,11.80
2023-04-23T21:18:56.238Z,12.40
2023-04-23T21:21:28.164Z,10.90
2023-04-23T21:23:56.467Z,11.90
2023-04-23T21:26:24.308Z,17.20
2023-04-23T21:28:51.467Z,8.90
2023-04-23T21:31:27.199Z,8.20
2023-04-23T21:33:56.574Z,10.80
2023-04-23T21:36:23.957Z,15.10
2023-04-23T21:38:53.320Z,12.60
2023-04-23T21:41:20.507Z,13.40
2023-04-23T21:43:47.566Z,16.10
2023-04-23T21:46:14.748Z,15.90
2023-04-23T21:48:41.962Z,10.10
2023-04-23T21:51:09.089Z,10.10
2023-04-23T21:53:36.138Z,12.30
2023-04-23T21:56:03.429Z,17.70
2023-04-23T21:58:32.765Z,13.60
2023-04-23T22:01:00.415Z,12.10
2023-04-23T22:03:38.446Z,12.10
2023-04-23T22:06:07.107Z,13.40
2023-04-23T22:08:35.072Z,13.10
2023-04-23T22:11:02.260Z,21.40
2023-04-23T22:13:29.305Z,18.80
2023-04-23T22:15:57.509Z,33.80
2023-04-23T22:18:24.794Z,33.10
2023-04-23T22:20:53.207Z,22.50
2023-04-23T22:23:21.870Z,26.20
2023-04-23T22:25:49.056Z,23.00
2023-04-23T22:28:16.965Z,30.60
2023-04-23T22:30:46.689Z,37.00
2023-04-23T22:33:13.949Z,36.00
2023-04-23T22:35:41.557Z,43.40
2023-04-23T22:38:10.019Z,35.10
2023-04-23T22:40:37.084Z,45.70
2023-04-23T22:43:04.148Z,35.30
2023-04-23T22:45:32.425Z,35.50
2023-04-23T22:47:59.845Z,33.40
2023-04-23T22:50:27.834Z,34.10
2023-04-23T22:52:54.880Z,30.40
2023-04-23T22:55:21.998Z,36.40
2023-04-23T22:57:49.407Z,27.90
2023-04-23T23:00:16.754Z,29.70
2023-04-23T23:02:43.842Z,33.60
2023-04-23T23:05:11.602Z,40.50
2023-04-23T23:07:38.853Z,28.50
2023-04-23T23:10:09.139Z,33.10
2023-04-23T23:12:37.443Z,38.20
2023-04-23T23:15:06.136Z,33.70
2023-04-23T23:17:33.304Z,39.10
2023-04-23T23:20:00.537Z,42.50
2023-04-23T23:22:27.755Z,39.90
2023-04-23T23:24:54.952Z,39.60
2023-04-23T23:27:22.179Z,45.70
2023-04-23T23:29:49.342Z,36.90
2023-04-23T23:32:18.010Z,40.80
2023-04-23T23:34:45.397Z,43.60
2023-04-23T23:37:12.492Z,43.40
2023-04-23T23:39:40.002Z,38.40
2023-04-23T23:42:07.457Z,34.70
2023-04-23T23:44:34.635Z,38.00
2023-04-23T23:47:01.841Z,41.40
2023-04-23T23:49:29.096Z,43.20
2023-04-23T23:51:56.647Z,39.30
2023-04-23T23:54:23.776Z,37.30
2023-04-23T23:56:51.119Z,39.80
2023-04-23T23:59:18.167Z,46.00
